Time;durP1;ratioP1;P1;durP2;ratioP2;P2;SDS_P1;SDS_P2;PMS_P1;PMS_P2;Temp;Humidity;BMP_temperature;BMP_pressure;BME280_temperature;BME280_humidity;BME280_pressure;Samples;Min_cycle;Max_cycle;Signal;HPM_P1;HPM_P2
2022/10/17 00:02:30;;;;;;;2.42;1.08;;;14.80;99.90;;;;;;20551210;28;20085;-83
2022/10/17 00:12:32;;;;;;;2.33;1.13;;;14.80;99.90;;;;;;20549870;28;20065;-83
2022/10/17 00:22:33;;;;;;;2.97;1.30;;;14.70;99.90;;;;;;20573441;28;20192;-82
2022/10/17 00:32:34;;;;;;;2.90;1.30;;;14.70;99.90;;;;;;20578153;28;20336;-83
2022/10/17 00:42:35;;;;;;;2.35;1.15;;;14.60;99.90;;;;;;20578613;28;20038;-82
2022/10/17 00:52:36;;;;;;;2.97;1.67;;;14.50;99.90;;;;;;20581956;28;20150;-83
2022/10/17 01:02:37;;;;;;;3.00;1.27;;;14.50;99.90;;;;;;20559352;28;20201;-82
2022/10/17 01:12:50;;;;;;;5.90;1.25;;;14.50;99.90;;;;;;20574913;28;20133;-82
2022/10/17 01:22:57;;;;;;;3.83;1.60;;;14.50;99.90;;;;;;20532872;28;20138;-82
2022/10/17 01:33:09;;;;;;;3.10;1.38;;;14.50;99.90;;;;;;20553982;28;20043;-83
2022/10/17 01:43:14;;;;;;;5.78;2.40;;;14.50;99.90;;;;;;20588399;28;20092;-83
2022/10/17 01:53:24;;;;;;;3.67;1.60;;;14.60;99.90;;;;;;20570085;28;21586;-83
2022/10/17 02:03:27;;;;;;;2.50;1.63;;;14.60;99.90;;;;;;20531704;28;20165;-83
2022/10/17 02:13:47;;;;;;;2.40;1.30;;;14.60;99.90;;;;;;20541245;28;20534;-83
2022/10/17 02:24:12;;;;;;;5.13;3.22;;;14.60;99.90;;;;;;20592631;28;20597;-83
2022/10/17 02:34:24;;;;;;;4.15;1.98;;;14.60;99.90;;;;;;20589375;28;20119;-83
2022/10/17 02:44:27;;;;;;;3.60;2.03;;;14.80;99.90;;;;;;20579276;28;22628;-83
2022/10/17 02:54:44;;;;;;;3.55;1.75;;;14.90;99.90;;;;;;20544096;28;20600;-83
2022/10/17 03:04:46;;;;;;;3.78;2.13;;;14.90;99.90;;;;;;20554413;28;20055;-83
2022/10/17 03:14:47;;;;;;;3.80;2.08;;;15.00;99.90;;;;;;20552542;28;20050;-83
2022/10/17 03:24:48;;;;;;;2.53;1.90;;;15.10;99.90;;;;;;20565884;28;20147;-83
2022/10/17 03:34:49;;;;;;;4.40;2.25;;;15.10;99.90;;;;;;20548659;28;20046;-82
2022/10/17 03:44:50;;;;;;;6.32;2.08;;;15.20;99.90;;;;;;20537612;28;20525;-82
2022/10/17 03:54:51;;;;;;;5.25;2.45;;;15.60;99.90;;;;;;20583591;28;20504;-83
2022/10/17 04:04:52;;;;;;;3.40;2.10;;;15.80;99.90;;;;;;20583842;28;20171;-83
2022/10/17 04:14:53;;;;;;;3.42;1.58;;;15.80;99.90;;;;;;20605502;28;20064;-83
2022/10/17 04:24:54;;;;;;;4.40;2.17;;;15.90;99.90;;;;;;20568099;28;20161;-83
2022/10/17 04:34:55;;;;;;;3.72;1.88;;;15.90;99.90;;;;;;20598159;28;20050;-82
2022/10/17 04:44:56;;;;;;;4.30;2.13;;;15.90;99.90;;;;;;20644939;28;20116;-82
2022/10/17 04:54:57;;;;;;;6.28;1.63;;;16.00;99.90;;;;;;20599649;28;20042;-83
2022/10/17 05:04:58;;;;;;;3.47;1.95;;;16.00;99.90;;;;;;20615918;28;20134;-84
2022/10/17 05:14:59;;;;;;;4.22;2.10;;;16.10;99.90;;;;;;20594711;28;20047;-82
2022/10/17 05:25:00;;;;;;;5.97;2.17;;;16.10;99.90;;;;;;20611813;28;20052;-82
2022/10/17 05:35:03;;;;;;;4.20;1.60;;;16.20;99.90;;;;;;20575418;28;20035;-82
2022/10/17 05:45:04;;;;;;;3.67;1.55;;;16.20;99.90;;;;;;20567927;28;20062;-82
2022/10/17 05:55:06;;;;;;;3.85;1.80;;;16.10;99.90;;;;;;20619393;28;20042;-83
2022/10/17 06:05:07;;;;;;;2.28;1.45;;;16.10;99.90;;;;;;20517838;28;20066;-83
2022/10/17 06:15:08;;;;;;;2.78;1.45;;;16.20;99.90;;;;;;20535139;28;20535;-84
2022/10/17 06:25:10;;;;;;;3.85;2.00;;;16.20;99.90;;;;;;20553080;28;20143;-83
2022/10/17 06:35:11;;;;;;;4.90;2.53;;;16.20;99.90;;;;;;20565209;28;20136;-83
2022/10/17 06:45:12;;;;;;;3.38;1.35;;;16.20;99.90;;;;;;20551440;28;20237;-82
2022/10/17 06:55:13;;;;;;;6.53;1.77;;;16.30;99.90;;;;;;20571222;28;20066;-82
2022/10/17 07:05:14;;;;;;;6.30;1.75;;;16.20;99.90;;;;;;20515988;28;20363;-83
2022/10/17 07:15:15;;;;;;;5.25;2.42;;;16.30;99.90;;;;;;20576692;28;20118;-84
2022/10/17 07:25:16;;;;;;;3.78;1.92;;;16.30;99.90;;;;;;20607338;28;20072;-83
2022/10/17 07:35:17;;;;;;;3.83;1.80;;;16.50;99.90;;;;;;20623705;28;20044;-84
2022/10/17 07:45:20;;;;;;;6.03;2.25;;;16.60;99.90;;;;;;20679806;28;20107;-83
2022/10/17 07:55:21;;;;;;;3.50;2.10;;;16.50;99.90;;;;;;20692397;28;20046;-83
2022/10/17 08:05:22;;;;;;;3.42;2.05;;;16.40;99.90;;;;;;20685241;28;20134;-82
2022/10/17 08:15:26;;;;;;;3.22;2.00;;;16.30;99.90;;;;;;20637659;28;20035;-81
2022/10/17 08:25:27;;;;;;;3.78;1.63;;;16.40;99.90;;;;;;20659301;28;21973;-81
2022/10/17 08:35:28;;;;;;;4.10;1.35;;;16.30;99.90;;;;;;20639209;28;20063;-81
2022/10/17 08:45:41;;;;;;;5.68;2.83;;;16.30;99.90;;;;;;20667666;28;20108;-81
2022/10/17 08:55:47;;;;;;;6.93;1.67;;;16.30;99.90;;;;;;20656540;28;20105;-82
2022/10/17 09:05:54;;;;;;;5.38;2.35;;;16.30;99.90;;;;;;20662309;28;20116;-83
2022/10/17 09:16:07;;;;;;;4.40;2.45;;;16.30;99.90;;;;;;20748792;28;20769;-80
2022/10/17 09:26:09;;;;;;;4.55;2.08;;;16.30;99.90;;;;;;20672740;28;20046;-80
2022/10/17 09:36:23;;;;;;;4.10;2.30;;;16.40;99.90;;;;;;20684642;28;20510;-81
2022/10/17 09:46:31;;;;;;;7.07;2.80;;;16.40;99.90;;;;;;20665804;28;20506;-82
2022/10/17 09:56:55;;;;;;;5.63;1.70;;;16.50;99.90;;;;;;20680579;28;20050;-81
2022/10/17 10:07:03;;;;;;;3.08;1.73;;;16.50;99.90;;;;;;20628532;28;20483;-83
2022/10/17 10:17:23;;;;;;;3.38;2.08;;;16.50;99.90;;;;;;20657439;28;20037;-83
2022/10/17 10:27:26;;;;;;;5.20;2.60;;;16.50;99.90;;;;;;20632892;28;20066;-83
2022/10/17 10:37:42;;;;;;;4.70;2.42;;;16.50;99.90;;;;;;20633808;28;20624;-82
2022/10/17 10:47:58;;;;;;;5.32;2.08;;;16.50;99.90;;;;;;20642209;28;20055;-85
2022/10/17 10:58:05;;;;;;;3.42;1.70;;;16.70;99.90;;;;;;20615433;28;20040;-80
2022/10/17 11:08:49;;;;;;;5.75;2.05;;;16.50;99.90;;;;;;20653685;28;20061;-82
2022/10/17 11:18:58;;;;;;;3.08;1.63;;;16.50;99.90;;;;;;20596689;28;20729;-81
2022/10/17 11:29:06;;;;;;;3.22;2.25;;;16.50;99.90;;;;;;20633733;28;20057;-79
2022/10/17 11:39:16;;;;;;;3.95;2.17;;;16.40;99.90;;;;;;20582947;28;20046;-81
2022/10/17 11:49:23;;;;;;;2.75;1.65;;;16.50;99.90;;;;;;20580134;28;20465;-83
2022/10/17 11:59:38;;;;;;;2.45;1.30;;;16.30;99.90;;;;;;20609597;28;20092;-85
2022/10/17 12:09:44;;;;;;;3.70;1.35;;;16.30;99.90;;;;;;20593888;28;20084;-84
2022/10/17 12:19:45;;;;;;;3.08;1.92;;;16.30;99.90;;;;;;20565325;28;20075;-83
2022/10/17 12:29:47;;;;;;;2.90;1.70;;;16.20;99.90;;;;;;20584187;28;20614;-83
2022/10/17 12:39:48;;;;;;;4.07;1.83;;;16.20;99.90;;;;;;20609651;28;20074;-83
2022/10/17 12:49:49;;;;;;;4.05;1.50;;;16.20;99.90;;;;;;20596478;28;20104;-82
2022/10/17 12:59:51;;;;;;;4.82;1.70;;;16.30;99.90;;;;;;20595765;28;20073;-82
2022/10/17 13:09:52;;;;;;;3.63;1.33;;;16.30;99.90;;;;;;20557076;28;20117;-82
2022/10/17 13:19:54;;;;;;;4.70;1.67;;;16.50;99.90;;;;;;20562313;28;20051;-82
2022/10/17 13:29:57;;;;;;;2.85;2.03;;;16.60;99.90;;;;;;20551582;28;20115;-82
2022/10/17 13:39:58;;;;;;;2.95;1.45;;;16.60;99.90;;;;;;20557756;28;20154;-82
2022/10/17 13:50:00;;;;;;;4.75;2.17;;;16.70;99.90;;;;;;20539478;28;22960;-82
2022/10/17 14:00:06;;;;;;;6.45;2.28;;;16.70;99.90;;;;;;20535795;28;20103;-82
2022/10/17 14:10:40;;;;;;;4.05;2.00;;;16.80;99.90;;;;;;20549904;28;20047;-82
2022/10/17 14:20:46;;;;;;;4.50;2.25;;;16.90;99.90;;;;;;20526883;28;20523;-83
2022/10/17 14:30:51;;;;;;;4.78;1.38;;;17.00;99.90;;;;;;20535246;28;20540;-82
2022/10/17 14:41:00;;;;;;;3.28;1.70;;;17.20;99.90;;;;;;20551141;28;20058;-82
2022/10/17 14:51:16;;;;;;;3.08;1.50;;;17.60;99.90;;;;;;20508832;28;20097;-81
2022/10/17 15:01:18;;;;;;;3.55;1.67;;;17.30;99.90;;;;;;20519011;28;20854;-82
2022/10/17 15:11:18;;;;;;;4.18;1.40;;;17.20;99.90;;;;;;20542403;28;20435;-82
2022/10/17 15:21:22;;;;;;;1.90;0.85;;;17.10;99.90;;;;;;20569761;28;20711;-82
2022/10/17 15:31:25;;;;;;;3.80;1.55;;;17.00;99.90;;;;;;20518970;28;20047;-82
2022/10/17 15:41:28;;;;;;;2.03;0.65;;;16.90;99.90;;;;;;20556127;28;20051;-82
2022/10/17 15:51:29;;;;;;;2.15;1.30;;;16.80;99.90;;;;;;20526332;28;20048;-82
2022/10/17 16:01:31;;;;;;;4.20;1.23;;;16.60;99.90;;;;;;20540159;28;20039;-81
2022/10/17 16:11:38;;;;;;;2.17;0.77;;;16.50;99.90;;;;;;20592960;28;20038;-82
2022/10/17 16:21:40;;;;;;;1.93;1.30;;;16.40;99.90;;;;;;20618394;28;20054;-82
2022/10/17 16:31:44;;;;;;;2.17;0.88;;;16.30;99.90;;;;;;20626691;28;20054;-82
2022/10/17 16:41:44;;;;;;;2.00;1.08;;;16.20;99.90;;;;;;20586950;28;20045;-85
2022/10/17 16:51:45;;;;;;;7.82;1.27;;;16.20;99.90;;;;;;20589903;28;20050;-85
2022/10/17 17:01:46;;;;;;;3.03;0.90;;;16.10;99.90;;;;;;20577033;28;20042;-82
2022/10/17 17:11:47;;;;;;;3.70;1.25;;;16.10;99.90;;;;;;20566062;28;20057;-83
2022/10/17 17:21:49;;;;;;;2.08;0.90;;;16.00;99.90;;;;;;20539778;28;20054;-83
2022/10/17 17:31:50;;;;;;;2.25;1.17;;;15.90;99.90;;;;;;20602226;28;20109;-83
2022/10/17 17:41:51;;;;;;;2.97;1.80;;;15.90;99.90;;;;;;20563484;28;20083;-83
2022/10/17 17:51:52;;;;;;;1.67;0.65;;;15.70;99.90;;;;;;20557324;28;20056;-83
2022/10/17 18:01:53;;;;;;;10.95;1.90;;;15.70;99.90;;;;;;20579748;28;20038;-82
2022/10/17 18:11:54;;;;;;;4.57;1.58;;;15.70;99.90;;;;;;20556591;28;20065;-82
2022/10/17 18:21:55;;;;;;;8.68;1.60;;;15.60;99.90;;;;;;20582406;28;20045;-82
2022/10/17 18:31:57;;;;;;;2.55;1.05;;;15.60;99.90;;;;;;20588272;28;20053;-82
2022/10/17 18:41:58;;;;;;;2.63;0.73;;;15.50;99.90;;;;;;20610457;28;20042;-82
2022/10/17 18:51:59;;;;;;;5.97;1.60;;;15.50;99.90;;;;;;20614850;28;20054;-82
2022/10/17 19:02:00;;;;;;;1.73;1.00;;;15.40;99.90;;;;;;20586050;28;20038;-82
2022/10/17 19:12:01;;;;;;;1.88;0.93;;;15.30;99.90;;;;;;20554095;28;20058;-82
2022/10/17 19:22:02;;;;;;;2.65;0.98;;;15.30;99.90;;;;;;20563858;28;20038;-82
2022/10/17 19:32:08;;;;;;;3.28;1.38;;;15.20;99.90;;;;;;20543538;28;20050;-82
2022/10/17 19:42:09;;;;;;;3.88;1.73;;;15.20;99.90;;;;;;20576805;28;20101;-81
2022/10/17 19:52:10;;;;;;;4.85;2.53;;;15.10;99.90;;;;;;20551277;28;20111;-82
2022/10/17 20:02:12;;;;;;;3.60;1.88;;;15.10;99.90;;;;;;20617198;28;20035;-81
2022/10/17 20:12:13;;;;;;;6.15;2.88;;;15.10;99.90;;;;;;20592984;28;20115;-85
2022/10/17 20:22:14;;;;;;;3.95;2.00;;;15.10;99.90;;;;;;20615638;28;21303;-83
2022/10/17 20:32:15;;;;;;;3.33;1.73;;;15.00;99.90;;;;;;20590677;28;20131;-82
2022/10/17 20:42:16;;;;;;;5.70;3.10;;;15.00;99.90;;;;;;20656998;28;20046;-83
2022/10/17 20:52:17;;;;;;;5.15;2.10;;;14.90;99.90;;;;;;20670226;28;20041;-83
2022/10/17 21:02:18;;;;;;;4.53;2.40;;;14.80;99.90;;;;;;20664432;28;20038;-83
2022/10/17 21:12:19;;;;;;;3.13;1.88;;;14.70;99.90;;;;;;20627931;28;20050;-83
2022/10/17 21:22:20;;;;;;;4.80;2.38;;;14.70;99.90;;;;;;20619220;28;20050;-83
2022/10/17 21:32:21;;;;;;;4.32;1.85;;;14.60;99.90;;;;;;20619834;28;20055;-83
2022/10/17 21:42:22;;;;;;;5.65;3.05;;;14.60;99.90;;;;;;20629885;28;20042;-83
2022/10/17 21:52:23;;;;;;;4.95;3.25;;;14.50;99.90;;;;;;20633980;28;20050;-82
2022/10/17 22:02:24;;;;;;;5.30;2.88;;;14.40;99.90;;;;;;20588528;28;20565;-83
2022/10/17 22:12:25;;;;;;;3.33;2.03;;;14.40;99.90;;;;;;20652116;28;20053;-81
2022/10/17 22:22:26;;;;;;;3.97;2.38;;;14.40;99.90;;;;;;20606107;28;20513;-81
2022/10/17 22:32:27;;;;;;;4.43;2.25;;;14.40;99.90;;;;;;20589114;28;20047;-83
2022/10/17 22:42:33;;;;;;;7.95;3.85;;;14.30;99.90;;;;;;20611550;28;20490;-83
2022/10/17 22:52:34;;;;;;;5.78;2.95;;;14.20;99.90;;;;;;20600505;28;20077;-82
2022/10/17 23:02:35;;;;;;;8.18;3.22;;;14.10;99.90;;;;;;20625506;28;20035;-82
2022/10/17 23:12:36;;;;;;;5.03;2.95;;;14.10;99.90;;;;;;20595313;28;20128;-82
2022/10/17 23:22:37;;;;;;;4.43;2.42;;;14.00;99.90;;;;;;20592722;28;20046;-83
2022/10/17 23:32:39;;;;;;;4.45;2.55;;;13.90;99.90;;;;;;20601573;28;20042;-82
2022/10/17 23:42:40;;;;;;;6.72;2.55;;;13.90;99.90;;;;;;20582526;28;20316;-83
2022/10/17 23:52:41;;;;;;;3.47;2.97;;;13.90;99.90;;;;;;20602322;28;20056;-83
